Time;durP1;ratioP1;P1;durP2;ratioP2;P2;SDS_P1;SDS_P2;PMS_P1;PMS_P2;Temp;Humidity;BMP_temperature;BMP_pressure;BME280_temperature;BME280_humidity;BME280_pressure;Samples;Min_cycle;Max_cycle;Signal;HPM_P1;HPM_P2
2022/05/04 05:45:49;;;;;;;40.67;25.38;;;;;;;;;;5686361;23;20070;-93
2022/05/04 05:48:16;;;;;;;43.33;26.60;;;;;;;;;;4956809;28;20047;-93
2022/05/04 05:50:43;;;;;;;43.72;26.55;;;;;;;;;;4957450;28;20039;-94
2022/05/04 05:53:09;;;;;;;42.08;25.27;;;;;;;;;;4960569;28;20063;-95
2022/05/04 05:55:36;;;;;;;43.38;26.83;;;;;;;;;;4950081;28;20102;-94
2022/05/04 05:58:03;;;;;;;44.92;26.42;;;;;;;;;;4951886;28;22606;-94
2022/05/04 06:00:30;;;;;;;49.60;28.15;;;;;;;;;;4952106;28;20055;-93
2022/05/04 06:02:56;;;;;;;45.00;26.85;;;;;;;;;;4957322;28;20051;-92
2022/05/04 06:05:23;;;;;;;54.53;28.67;;;;;;;;;;4951300;28;20134;-93
2022/05/04 06:07:51;;;;;;;49.50;28.17;;;;;;;;;;4966747;28;20043;-93
2022/05/04 06:10:26;;;;;;;55.88;30.63;;;;;;;;;;4963211;28;20051;-93
2022/05/04 06:12:53;;;;;;;55.90;31.80;;;;;;;;;;4958074;28;20061;-92
2022/05/04 06:15:20;;;;;;;63.10;34.70;;;;;;;;;;4964567;28;20090;-92
2022/05/04 06:17:51;;;;;;;68.53;35.47;;;;;;;;;;4968527;28;20075;-91
2022/05/04 06:20:18;;;;;;;64.68;35.10;;;;;;;;;;4952371;28;20051;-91
2022/05/04 06:22:45;;;;;;;68.63;36.13;;;;;;;;;;4961942;28;20059;-91
2022/05/04 06:25:11;;;;;;;65.90;35.50;;;;;;;;;;4963108;28;20051;-91
2022/05/04 06:27:38;;;;;;;72.72;37.20;;;;;;;;;;4962806;28;20075;-92
2022/05/04 06:35:37;;;;;;;76.38;38.75;;;;;;;;;;4959283;28;20075;-92
2022/05/04 06:38:10;;;;;;;67.60;37.35;;;;;;;;;;4953979;28;20056;-92
2022/05/04 06:40:39;;;;;;;72.03;38.03;;;;;;;;;;4959073;28;20048;-91
2022/05/04 06:43:08;;;;;;;67.45;36.65;;;;;;;;;;4953683;28;20062;-91
2022/05/04 06:45:35;;;;;;;68.78;37.08;;;;;;;;;;4956577;28;20058;-89
2022/05/04 06:48:02;;;;;;;70.45;36.65;;;;;;;;;;4960988;29;20058;-92
2022/05/04 06:50:40;;;;;;;71.35;38.40;;;;;;;;;;4960786;28;20083;-91
2022/05/04 06:53:09;;;;;;;70.00;38.35;;;;;;;;;;4958020;28;20098;-92
2022/05/04 06:55:38;;;;;;;68.72;36.88;;;;;;;;;;4950584;28;20054;-93
2022/05/04 06:58:09;;;;;;;64.38;36.08;;;;;;;;;;4965911;28;20047;-93
2022/05/04 07:00:44;;;;;;;67.63;35.53;;;;;;;;;;4964019;29;20404;-93
2022/05/04 07:03:22;;;;;;;65.47;36.03;;;;;;;;;;4968052;28;20047;-93
2022/05/04 07:06:08;;;;;;;58.63;33.45;;;;;;;;;;4963233;28;20047;-94
2022/05/04 07:08:38;;;;;;;58.58;32.42;;;;;;;;;;4967839;28;20075;-94
2022/05/04 07:11:05;;;;;;;51.47;30.45;;;;;;;;;;4965990;28;20045;-94
2022/05/04 07:13:32;;;;;;;50.25;30.38;;;;;;;;;;4965035;29;20061;-92
2022/05/04 07:15:59;;;;;;;49.03;28.15;;;;;;;;;;4963618;28;20057;-92
2022/05/04 07:18:27;;;;;;;46.22;27.30;;;;;;;;;;4964689;28;20050;-91
2022/05/04 07:20:54;;;;;;;45.42;26.90;;;;;;;;;;4946562;29;20193;-91
2022/05/04 07:23:21;;;;;;;44.75;27.10;;;;;;;;;;4962336;28;20047;-93
2022/05/04 07:25:48;;;;;;;43.25;26.20;;;;;;;;;;4959029;29;20106;-91
2022/05/04 07:28:15;;;;;;;43.22;25.90;;;;;;;;;;4961724;28;20114;-92
2022/05/04 07:30:43;;;;;;;43.90;26.27;;;;;;;;;;4963064;28;20047;-92
2022/05/04 07:33:10;;;;;;;39.70;25.85;;;;;;;;;;4965322;28;20054;-93
2022/05/04 07:35:37;;;;;;;42.97;25.77;;;;;;;;;;4977073;28;20079;-94
2022/05/04 07:38:05;;;;;;;41.15;25.05;;;;;;;;;;4975217;28;20066;-92
2022/05/04 07:43:22;;;;;;;35.67;23.63;;;;;;;;;;4958416;28;20050;-93
2022/05/04 07:45:55;;;;;;;42.65;26.55;;;;;;;;;;4965324;28;20055;-91
2022/05/04 07:48:28;;;;;;;38.65;25.45;;;;;;;;;;4964357;28;20048;-94
2022/05/04 07:50:58;;;;;;;38.97;24.23;;;;;;;;;;4970402;28;20106;-93
2022/05/04 07:53:25;;;;;;;42.58;24.70;;;;;;;;;;4953476;28;20104;-91
2022/05/04 07:55:52;;;;;;;38.67;25.55;;;;;;;;;;4971255;28;20051;-91
2022/05/04 07:58:22;;;;;;;45.22;27.50;;;;;;;;;;4930895;28;20429;-92
2022/05/04 08:06:21;;;;;;;39.92;25.20;;;;;;;;;;4958797;28;20062;-92
2022/05/04 08:08:50;;;;;;;41.00;26.13;;;;;;;;;;4963582;28;20046;-91
2022/05/04 08:11:17;;;;;;;43.80;26.88;;;;;;;;;;4945627;28;20055;-93
2022/05/04 08:13:44;;;;;;;42.25;26.08;;;;;;;;;;4941959;29;20052;-91
2022/05/04 08:16:13;;;;;;;39.30;24.73;;;;;;;;;;4954502;28;20041;-89
2022/05/04 08:18:42;;;;;;;38.40;25.65;;;;;;;;;;4953754;28;20055;-90
2022/05/04 08:21:09;;;;;;;38.50;23.58;;;;;;;;;;4961208;28;20043;-92
2022/05/04 08:23:36;;;;;;;39.33;24.48;;;;;;;;;;4965805;28;20055;-91
2022/05/04 08:26:04;;;;;;;37.67;25.05;;;;;;;;;;4959277;28;20079;-92
2022/05/04 08:28:32;;;;;;;41.20;24.88;;;;;;;;;;4958210;28;20047;-90
2022/05/04 08:30:59;;;;;;;35.03;24.25;;;;;;;;;;4956274;29;20055;-92
2022/05/04 08:33:26;;;;;;;38.10;24.08;;;;;;;;;;4960261;28;20081;-91
2022/05/04 08:35:53;;;;;;;39.53;25.27;;;;;;;;;;4950115;28;20078;-90
2022/05/04 08:38:19;;;;;;;43.17;25.35;;;;;;;;;;4951116;28;20054;-89
2022/05/04 08:40:46;;;;;;;41.28;25.52;;;;;;;;;;4955610;28;20129;-93
2022/05/04 08:43:13;;;;;;;42.20;26.63;;;;;;;;;;4957626;28;20055;-92
2022/05/04 08:45:44;;;;;;;41.65;25.50;;;;;;;;;;4966232;28;20061;-91
2022/05/04 08:48:12;;;;;;;39.55;26.63;;;;;;;;;;4952898;28;20055;-92
2022/05/04 08:50:45;;;;;;;43.90;25.60;;;;;;;;;;4945577;29;20051;-90
2022/05/04 08:53:15;;;;;;;43.95;27.65;;;;;;;;;;4959901;28;20046;-92
2022/05/04 08:55:44;;;;;;;39.20;26.23;;;;;;;;;;4959821;28;20122;-92
2022/05/04 08:58:12;;;;;;;42.05;27.70;;;;;;;;;;4963288;28;20515;-92
2022/05/04 09:00:39;;;;;;;46.58;29.95;;;;;;;;;;4956010;29;20055;-94
2022/05/04 09:03:07;;;;;;;51.67;29.65;;;;;;;;;;4956943;28;20478;-92
2022/05/04 09:05:40;;;;;;;49.00;29.05;;;;;;;;;;4957628;28;20046;-93
2022/05/04 09:08:11;;;;;;;51.53;31.52;;;;;;;;;;4953158;28;20055;-92
2022/05/04 09:10:49;;;;;;;50.92;31.30;;;;;;;;;;4958681;28;20051;-94
2022/05/04 09:13:20;;;;;;;53.42;31.52;;;;;;;;;;4961403;28;20050;-92
2022/05/04 09:15:56;;;;;;;52.97;30.40;;;;;;;;;;4957189;28;20463;-93
2022/05/04 09:18:24;;;;;;;45.17;27.88;;;;;;;;;;4959453;28;20065;-95
2022/05/04 09:20:55;;;;;;;42.15;24.05;;;;;;;;;;4953399;29;20051;-94
2022/05/04 09:23:30;;;;;;;28.13;19.05;;;;;;;;;;4950193;28;20397;-92
2022/05/04 09:26:05;;;;;;;23.08;16.85;;;;;;;;;;4958762;28;20051;-94
2022/05/04 09:28:32;;;;;;;34.67;22.55;;;;;;;;;;4956554;28;20044;-92
2022/05/04 09:31:09;;;;;;;32.30;22.23;;;;;;;;;;4961524;28;20113;-93
2022/05/04 09:33:38;;;;;;;25.30;19.25;;;;;;;;;;4960724;28;20479;-94
2022/05/04 09:36:06;;;;;;;29.95;19.52;;;;;;;;;;4953988;28;20102;-95
2022/05/04 09:46:56;;;;;;;18.13;13.02;;;;;;;;;;4954703;28;20074;-92
2022/05/04 09:49:33;;;;;;;11.32;9.45;;;;;;;;;;4956347;28;20047;-93
2022/05/04 09:52:04;;;;;;;14.98;9.98;;;;;;;;;;4956382;28;20138;-93
2022/05/04 09:54:31;;;;;;;17.83;11.75;;;;;;;;;;4958159;28;20053;-93
2022/05/04 09:57:00;;;;;;;12.40;9.35;;;;;;;;;;4955619;28;20479;-91
2022/05/04 09:59:30;;;;;;;15.32;10.55;;;;;;;;;;4956311;28;20111;-93
2022/05/04 10:02:03;;;;;;;15.95;9.85;;;;;;;;;;4957023;28;20047;-94
2022/05/04 10:04:33;;;;;;;14.57;10.43;;;;;;;;;;4956169;28;20087;-94
2022/05/04 10:07:10;;;;;;;14.70;10.75;;;;;;;;;;4955394;28;20508;-95
2022/05/04 10:09:41;;;;;;;16.67;13.00;;;;;;;;;;4950768;28;20075;-86
2022/05/04 10:12:08;;;;;;;15.75;11.85;;;;;;;;;;4949815;28;20055;-90
2022/05/04 10:14:39;;;;;;;16.95;12.88;;;;;;;;;;4950511;28;20044;-88
2022/05/04 10:17:23;;;;;;;13.32;9.43;;;;;;;;;;4948417;28;20065;-88
2022/05/04 10:20:04;;;;;;;9.73;8.13;;;;;;;;;;4950447;28;20083;-88
2022/05/04 10:22:54;;;;;;;13.35;9.52;;;;;;;;;;4953158;28;20106;-92
2022/05/04 10:25:24;;;;;;;14.80;10.27;;;;;;;;;;4940615;28;20583;-90
2022/05/04 10:28:05;;;;;;;13.88;9.90;;;;;;;;;;4950540;29;20052;-87
2022/05/04 10:30:34;;;;;;;12.50;8.65;;;;;;;;;;4965734;28;20162;-88
2022/05/04 10:33:03;;;;;;;12.57;9.05;;;;;;;;;;4955541;28;20098;-85
2022/05/04 10:35:35;;;;;;;10.30;9.05;;;;;;;;;;4951143;28;20106;-89
2022/05/04 10:38:01;;;;;;;13.23;10.00;;;;;;;;;;4945691;28;21921;-88
2022/05/04 10:40:40;;;;;;;16.27;9.18;;;;;;;;;;4944837;28;20069;-89
2022/05/04 10:43:07;;;;;;;;;;;;;;;;;;4946269;28;20512;-85
2022/05/04 10:45:43;;;;;;;12.48;9.63;;;;;;;;;;4949160;28;19980;-88
2022/05/04 10:48:18;;;;;;;10.88;8.40;;;;;;;;;;4953677;28;20118;-86
2022/05/04 10:50:58;;;;;;;12.65;10.18;;;;;;;;;;4952030;28;20118;-86
2022/05/04 10:53:31;;;;;;;9.88;8.18;;;;;;;;;;4948258;28;20046;-87
2022/05/04 10:56:03;;;;;;;10.95;6.90;;;;;;;;;;4953784;28;20079;-86
2022/05/04 10:58:55;;;;;;;7.97;6.57;;;;;;;;;;4952625;28;20472;-87
2022/05/04 11:01:34;;;;;;;12.38;9.00;;;;;;;;;;4939901;28;20086;-83
2022/05/04 11:04:04;;;;;;;10.82;8.48;;;;;;;;;;4952652;28;20075;-84
2022/05/04 11:06:32;;;;;;;12.55;9.48;;;;;;;;;;4952899;28;20043;-86
2022/05/04 11:09:20;;;;;;;12.50;9.98;;;;;;;;;;4951220;29;20067;-86
2022/05/04 11:11:52;;;;;;;9.50;7.95;;;;;;;;;;4953953;28;20473;-87
2022/05/04 11:14:27;;;;;;;9.60;7.75;;;;;;;;;;4953655;28;20043;-85
2022/05/04 11:16:56;;;;;;;10.38;7.95;;;;;;;;;;4951805;29;20051;-86
2022/05/04 11:19:28;;;;;;;8.18;7.30;;;;;;;;;;4950341;28;20074;-88
2022/05/04 11:21:56;;;;;;;10.43;7.32;;;;;;;;;;4951464;28;20101;-87
2022/05/04 11:24:27;;;;;;;9.70;7.40;;;;;;;;;;4953023;28;20118;-88
2022/05/04 11:26:55;;;;;;;8.88;7.45;;;;;;;;;;4952527;28;20459;-86
2022/05/04 11:29:23;;;;;;;;;;;;;;;;;;4956117;28;20109;-85
2022/05/04 11:31:55;;;;;;;9.98;7.53;;;;;;;;;;4948571;28;20426;-83
2022/05/04 11:34:26;;;;;;;10.52;7.95;;;;;;;;;;4947638;28;20143;-86
2022/05/04 11:36:59;;;;;;;11.80;8.02;;;;;;;;;;4949083;29;20054;-84
2022/05/04 11:39:27;;;;;;;7.90;6.90;;;;;;;;;;4951036;28;20117;-84
2022/05/04 11:41:59;;;;;;;;;;;;;;;;;;4951851;28;20456;-86
2022/05/04 11:44:27;;;;;;;8.68;7.03;;;;;;;;;;4948126;28;19994;-86
2022/05/04 11:46:56;;;;;;;8.60;7.53;;;;;;;;;;4950623;28;20047;-83
2022/05/04 11:49:25;;;;;;;8.07;7.13;;;;;;;;;;4947960;28;20059;-83
2022/05/04 11:51:53;;;;;;;8.02;6.57;;;;;;;;;;4955287;28;20051;-87
2022/05/04 11:54:29;;;;;;;8.35;7.50;;;;;;;;;;4952438;28;20086;-86
2022/05/04 11:56:59;;;;;;;10.73;6.95;;;;;;;;;;4949562;29;20059;-85
2022/05/04 11:59:32;;;;;;;10.93;9.30;;;;;;;;;;4953299;28;20055;-86
2022/05/04 12:02:00;;;;;;;11.27;9.65;;;;;;;;;;4948986;28;20106;-85
2022/05/04 12:04:27;;;;;;;10.38;9.20;;;;;;;;;;4950598;28;20110;-87
2022/05/04 12:06:56;;;;;;;10.93;8.35;;;;;;;;;;4951290;28;20047;-86
2022/05/04 12:09:23;;;;;;;;;;;;;;;;;;4953192;28;20561;-89
2022/05/04 12:11:50;;;;;;;12.02;9.85;;;;;;;;;;4949975;28;20332;-86
2022/05/04 12:14:17;;;;;;;12.80;9.80;;;;;;;;;;4950477;28;20086;-87
2022/05/04 12:16:44;;;;;;;11.32;9.88;;;;;;;;;;4951690;28;20604;-86
2022/05/04 12:19:11;;;;;;;12.68;10.13;;;;;;;;;;4951013;28;20043;-86
2022/05/04 12:21:39;;;;;;;13.20;10.18;;;;;;;;;;4953017;28;20425;-87
2022/05/04 12:24:06;;;;;;;10.02;8.40;;;;;;;;;;4946903;28;20051;-86
2022/05/04 12:26:33;;;;;;;12.68;9.30;;;;;;;;;;4948032;28;20051;-87
2022/05/04 12:34:31;;;;;;;13.13;9.30;;;;;;;;;;4951067;28;20519;-85
2022/05/04 12:37:02;;;;;;;10.82;9.02;;;;;;;;;;4950985;28;20519;-83
2022/05/04 12:39:29;;;;;;;11.90;8.25;;;;;;;;;;4950659;28;20039;-84
2022/05/04 12:42:00;;;;;;;7.80;6.68;;;;;;;;;;4949327;28;20070;-85
2022/05/04 12:44:32;;;;;;;11.00;7.45;;;;;;;;;;4950333;28;20393;-85
2022/05/04 12:47:01;;;;;;;12.85;7.45;;;;;;;;;;4950198;28;20102;-88
2022/05/04 12:49:28;;;;;;;9.98;6.72;;;;;;;;;;4951398;28;20039;-87
2022/05/04 12:51:56;;;;;;;12.20;5.43;;;;;;;;;;4952161;28;20043;-86
2022/05/04 12:54:24;;;;;;;6.75;5.55;;;;;;;;;;4950803;28;20043;-87
2022/05/04 12:56:51;;;;;;;5.95;4.88;;;;;;;;;;4947803;28;20091;-87
2022/05/04 12:59:19;;;;;;;7.38;4.80;;;;;;;;;;4951325;28;20051;-89
2022/05/04 13:01:46;;;;;;;6.50;3.80;;;;;;;;;;4951242;28;20043;-88
2022/05/04 13:04:15;;;;;;;10.38;3.95;;;;;;;;;;4951019;28;20428;-87
2022/05/04 13:06:43;;;;;;;5.65;4.97;;;;;;;;;;4952113;28;20059;-86
2022/05/04 13:09:10;;;;;;;5.93;4.20;;;;;;;;;;4950508;28;20488;-85
2022/05/04 13:11:36;;;;;;;7.68;5.03;;;;;;;;;;4951542;28;20113;-88
2022/05/04 13:14:04;;;;;;;4.35;3.90;;;;;;;;;;4946856;28;20059;-87
2022/05/04 13:16:34;;;;;;;8.75;4.78;;;;;;;;;;4950921;28;20062;-89
2022/05/04 13:19:01;;;;;;;6.82;4.07;;;;;;;;;;4951479;28;20081;-88
2022/05/04 13:21:29;;;;;;;11.38;4.95;;;;;;;;;;4951604;28;20075;-88
2022/05/04 13:24:01;;;;;;;7.85;5.00;;;;;;;;;;4946608;28;20051;-85
2022/05/04 13:26:28;;;;;;;7.70;4.90;;;;;;;;;;4948360;28;20510;-89
2022/05/04 13:28:55;;;;;;;6.35;4.22;;;;;;;;;;4949193;28;20066;-90
2022/05/04 13:31:23;;;;;;;5.05;4.45;;;;;;;;;;4941521;28;20162;-90
2022/05/04 13:33:50;;;;;;;4.22;3.47;;;;;;;;;;4964142;28;20114;-88
2022/05/04 13:36:17;;;;;;;6.28;4.70;;;;;;;;;;4951763;28;20076;-89
2022/05/04 13:38:43;;;;;;;4.90;3.30;;;;;;;;;;4952054;28;20114;-88
2022/05/04 13:41:10;;;;;;;4.93;3.55;;;;;;;;;;4946600;28;20055;-88
2022/05/04 13:43:37;;;;;;;6.10;3.53;;;;;;;;;;4951536;28;20601;-87
2022/05/04 13:46:02;;;;;;;5.35;2.83;;;;;;;;;;4949889;28;20063;-90
